LQSA/SJJ METAR and TAF weather

Enter ICAO airport designator
Station Type Date Time Source
LQSA METAR 2019/02/23 00:00 UTC NOAA

LQSA 230000Z 36010KT 320V040 9999 FEW030 BKN045 M03/M11 Q1029


Station Type Date Time Source
LQSA Decoded METAR 2019/02/23 00:00 UTC NOAA

Sarajevo, Bosnia and Herzegovina (LQSA) 43-49N 018-20E 510M
Feb 22, 2019 - 07:00 PM EST / 2019.02.23 0000 UTC
Wind: from the N (360 degrees) at 12 MPH (10 KT) (direction variable):0
Visibility: greater than 7 mile(s):0
Sky conditions: mostly cloudy
Temperature: 26 F (-3 C)
Windchill: 15 F (-9 C):1
Dew Point: 12 F (-11 C)
Relative Humidity: 53%
Pressure (altimeter): 30.39 in. Hg (1029 hPa)
ob: LQSA 230000Z 36010KT 320V040 9999 FEW030 BKN045 M03/M11 Q1029
cycle: 0

Station Type Date Time Source
LQSA TAF 2019/02/22 18:08 UTC NOAA

TAF LQSA 221700Z 2218/2318 30010KT 9999 BKN045 TX05/2218Z TNM05/2306Z PROB40
TEMPO 2218/2224 34015G25KT SN BKN015 OVC040
TEMPO 2309/2318 04016KT


Example: see airport list